ADDS METAR Data

Data at: 0043 UTC 21 Nov 2017

METAR for:KSDL (Scottsdale Muni, AZ, US)
Text:KSDL 202353Z AUTO 00000KT 10SM CLR 24/M02 A2998 RMK AO2 SLP137 6//// T02391017 10256 20200 58010 $
Temperature: 23.9°C ( 75°F)
Dewpoint: -1.7°C ( 29°F) [RH = 18%]
Pressure (altimeter):29.98 inches Hg (1015.3 mb) [Sea level pressure: 1013.7 mb]
Winds:calm
Visibility:10 or more sm (16+ km)
Ceiling:at least 12,000 feet AGL
Clouds:sky clear below 12,000 feet AGL
QC Flag:automated observation with no human augmentation; SOME DATA ABOVE MAY BE INACCURATE!!!"$" is an indication the sensor requires maintenance.